Wetterdaten: Woche 14.12.15 - 20.12.15 (KW51)
Datum Zeit Temp. A. Feuchte A. Luftdruck Regen Wind Richtung Sonnenschein ET UV Solar Taupunkt Windchill Windben Empfang
14.12.2015 00:00 4,9 C 91 % 1024,1 hPa 0,0 l/m 0,7 km/h (0 Bft) NO 0,00 h 0,000 mm 0,0 UV-I 0 W/m 3,4 C 4,9 C 2,4 km/h (1 Bft) 97,64 %
14.12.2015 01:00 4,8 C 91 % 1023,8 hPa 0,0 l/m 1,0 km/h (0 Bft) S-SO 0,00 h 0,000 mm 0,0 UV-I 0 W/m 3,4 C 4,8 C 2,8 km/h (1 Bft) 98,65 %
14.12.2015 02:00 4,4 C 92 % 1023,7 hPa 0,0 l/m 0,3 km/h (0 Bft) S-SO 0,00 h 0,000 mm 0,0 UV-I 0 W/m 3,3 C 4,4 C 1,6 km/h (1 Bft) 98,07 %
14.12.2015 03:00 4,1 C 94 % 1023,6 hPa 0,0 l/m 0,3 km/h (0 Bft) O-NO 0,00 h 0,000 mm 0,0 UV-I 0 W/m 3,2 C 4,1 C 1,5 km/h (1 Bft) 98,80 %
14.12.2015 04:00 4,2 C 92 % 1023,6 hPa 0,0 l/m 2,2 km/h (1 Bft) NO 0,00 h 0,000 mm 0,0 UV-I 0 W/m 3,0 C 4,2 C 4,0 km/h (1 Bft) 98,15 %
14.12.2015 05:00 3,6 C 93 % 1023,6 hPa 0,0 l/m 0,5 km/h (0 Bft) SO 0,00 h 0,000 mm 0,0 UV-I 0 W/m 2,5 C 3,6 C 2,1 km/h (1 Bft) 98,04 %
14.12.2015 06:00 2,8 C 94 % 1023,6 hPa 0,0 l/m 0,5 km/h (0 Bft) SO 0,00 h 0,000 mm 0,0 UV-I 0 W/m 1,9 C 2,8 C 1,5 km/h (1 Bft) 98,09 %
14.12.2015 07:00 2,9 C 93 % 1023,8 hPa 0,0 l/m 7,2 km/h (2 Bft) O-NO 0,00 h 0,000 mm 0,0 UV-I 6 W/m 1,8 C 0,9 C 13,7 km/h (3 Bft) 97,27 %
14.12.2015 08:00 2,8 C 93 % 1024,0 hPa 0,0 l/m 9,8 km/h (2 Bft) O-NO 0,50 h 0,000 mm 0,0 UV-I 48 W/m 1,7 C -0,2 C 16,2 km/h (3 Bft) 98,08 %
14.12.2015 09:00 2,9 C 93 % 1024,3 hPa 0,0 l/m 11,1 km/h (2 Bft) O-NO 0,00 h 0,025 mm 0,0 UV-I 81 W/m 1,8 C -1,0 C 17,4 km/h (3 Bft) 98,42 %
14.12.2015 10:00 3,0 C 94 % 1024,3 hPa 0,0 l/m 11,6 km/h (2 Bft) O-NO 0,00 h 0,026 mm 0,0 UV-I 105 W/m 2,0 C -1,3 C 18,5 km/h (3 Bft) 98,44 %
14.12.2015 11:00 3,4 C 94 % 1024,0 hPa 0,0 l/m 11,5 km/h (2 Bft) NO 0,00 h 0,051 mm 0,0 UV-I 139 W/m 2,4 C -0,7 C 18,1 km/h (3 Bft) 98,29 %
14.12.2015 12:00 3,6 C 93 % 1023,6 hPa 0,0 l/m 12,7 km/h (3 Bft) NO 0,00 h 0,050 mm 0,0 UV-I 90 W/m 2,6 C -1,3 C 20,2 km/h (4 Bft) 98,17 %
14.12.2015 13:00 3,8 C 92 % 1023,5 hPa 0,0 l/m 12,7 km/h (3 Bft) O-NO 0,00 h 0,051 mm 0,0 UV-I 75 W/m 2,6 C -1,0 C 20,0 km/h (4 Bft) 98,80 %
14.12.2015 14:00 3,8 C 92 % 1023,4 hPa 0,0 l/m 13,2 km/h (3 Bft) O 0,00 h 0,026 mm 0,0 UV-I 40 W/m 2,6 C -1,3 C 20,2 km/h (4 Bft) 98,09 %
14.12.2015 15:00 3,8 C 92 % 1023,6 hPa 0,0 l/m 9,6 km/h (2 Bft) NO 0,00 h 0,025 mm 0,0 UV-I 14 W/m 2,6 C 1,1 C 15,8 km/h (3 Bft) 98,43 %
14.12.2015 16:00 3,8 C 92 % 1023,8 hPa 0,0 l/m 10,3 km/h (2 Bft) O-NO 0,00 h 0,000 mm 0,0 UV-I 0 W/m 2,6 C 0,6 C 17,3 km/h (3 Bft) 98,16 %
14.12.2015 17:00 3,5 C 93 % 1024,5 hPa 0,0 l/m 7,0 km/h (2 Bft) O 0,00 h 0,000 mm 0,0 UV-I 0 W/m 2,5 C 2,8 C 12,8 km/h (3 Bft) 98,22 %
14.12.2015 18:00 3,3 C 94 % 1025,0 hPa 0,0 l/m 5,2 km/h (1 Bft) O-SO 0,00 h 0,000 mm 0,0 UV-I 0 W/m 2,4 C 3,1 C 9,5 km/h (2 Bft) 98,33 %
14.12.2015 19:00 3,3 C 94 % 1025,3 hPa 0,0 l/m 5,2 km/h (1 Bft) O-SO 0,00 h 0,000 mm 0,0 UV-I 0 W/m 2,4 C 3,0 C 9,7 km/h (2 Bft) 98,72 %
14.12.2015 20:00 3,3 C 93 % 1025,5 hPa 0,0 l/m 5,8 km/h (2 Bft) O-SO 0,00 h 0,000 mm 0,0 UV-I 0 W/m 2,3 C 2,9 C 10,8 km/h (2 Bft) 97,89 %
14.12.2015 21:00 3,3 C 92 % 1025,7 hPa 0,0 l/m 3,0 km/h (1 Bft) SO 0,00 h 0,000 mm 0,0 UV-I 0 W/m 2,1 C 3,3 C 6,3 km/h (2 Bft) 98,16 %
14.12.2015 22:00 3,2 C 91 % 1025,8 hPa 0,0 l/m 1,7 km/h (1 Bft) O-SO 0,00 h 0,000 mm 0,0 UV-I 0 W/m 1,9 C 3,2 C 4,0 km/h (1 Bft) 96,64 %
14.12.2015 23:00 3,2 C 90 % 1025,9 hPa 0,0 l/m 2,9 km/h (1 Bft) O-SO 0,00 h 0,000 mm 0,0 UV-I 0 W/m 1,8 C 3,2 C 7,2 km/h (2 Bft) 97,95 %
15.12.2015 00:00 3,1 C 90 % 1025,8 hPa 0,0 l/m 1,4 km/h (1 Bft) O 0,00 h 0,000 mm 0,0 UV-I 0 W/m 1,7 C 3,1 C 4,1 km/h (1 Bft) 98,36 %
15.12.2015 01:00 2,9 C 91 % 1025,9 hPa 0,0 l/m 0,3 km/h (0 Bft) NW 0,00 h 0,000 mm 0,0 UV-I 0 W/m 1,5 C 2,9 C 1,9 km/h (1 Bft) 98,16 %
15.12.2015 02:00 2,8 C 92 % 1026,2 hPa 0,0 l/m 0,2 km/h (0 Bft) NW 0,00 h 0,000 mm 0,0 UV-I 0 W/m 1,6 C 2,8 C 0,8 km/h (0 Bft) 98,56 %
15.12.2015 03:00 2,8 C 91 % 1026,3 hPa 0,0 l/m 1,6 km/h (1 Bft) S 0,00 h 0,000 mm 0,0 UV-I 0 W/m 1,5 C 2,8 C 3,9 km/h (1 Bft) 97,73 %
15.12.2015 04:00 2,6 C 93 % 1026,1 hPa 0,0 l/m 2,0 km/h (1 Bft) S-SO 0,00 h 0,000 mm 0,0 UV-I 0 W/m 1,5 C 2,6 C 5,7 km/h (1 Bft) 98,56 %
15.12.2015 05:00 2,2 C 94 % 1026,0 hPa 0,0 l/m 2,7 km/h (1 Bft) SO 0,00 h 0,000 mm 0,0 UV-I 0 W/m 1,3 C 2,2 C 6,1 km/h (2 Bft) 97,74 %
15.12.2015 06:00 2,1 C 94 % 1026,1 hPa 0,0 l/m 3,3 km/h (1 Bft) SO 0,00 h 0,000 mm 0,0 UV-I 0 W/m 1,3 C 2,1 C 6,8 km/h (2 Bft) 98,51 %
15.12.2015 07:00 2,1 C 95 % 1025,9 hPa 0,0 l/m 3,4 km/h (1 Bft) S-SO 0,00 h 0,000 mm 0,0 UV-I 5 W/m 1,4 C 1,9 C 7,6 km/h (2 Bft) 97,89 %
15.12.2015 08:00 2,2 C 95 % 1026,0 hPa 0,0 l/m 1,2 km/h (1 Bft) SO 0,00 h 0,000 mm 0,0 UV-I 36 W/m 1,5 C 2,2 C 3,2 km/h (1 Bft) 98,95 %
15.12.2015 09:00 2,8 C 93 % 1026,5 hPa 0,0 l/m 1,0 km/h (0 Bft) SW 0,17 h 0,025 mm 0,0 UV-I 98 W/m 1,8 C 2,8 C 2,9 km/h (1 Bft) 97,63 %
15.12.2015 10:00 3,3 C 91 % 1027,0 hPa 0,0 l/m 1,5 km/h (1 Bft) W-SW 0,00 h 0,026 mm 0,0 UV-I 92 W/m 2,1 C 3,3 C 3,7 km/h (1 Bft) 98,16 %
15.12.2015 11:00 3,9 C 89 % 1026,8 hPa 0,0 l/m 2,6 km/h (1 Bft) S 0,08 h 0,025 mm 0,4 UV-I 147 W/m 2,3 C 3,9 C 5,5 km/h (1 Bft) 97,27 %
15.12.2015 12:00 4,6 C 88 % 1026,6 hPa 0,0 l/m 1,7 km/h (1 Bft) S-SW 0,25 h 0,051 mm 0,5 UV-I 147 W/m 2,7 C 4,6 C 4,8 km/h (1 Bft) 99,63 %
15.12.2015 13:00 5,1 C 86 % 1026,2 hPa 0,0 l/m 1,8 km/h (1 Bft) S 0,08 h 0,051 mm 0,0 UV-I 110 W/m 3,0 C 5,1 C 4,3 km/h (1 Bft) 99,51 %
15.12.2015 14:00 5,1 C 87 % 1026,1 hPa 0,0 l/m 0,3 km/h (0 Bft) N-NW 0,00 h 0,051 mm 0,0 UV-I 63 W/m 3,1 C 5,1 C 1,6 km/h (1 Bft) 98,76 %
15.12.2015 15:00 5,1 C 88 % 1026,2 hPa 0,0 l/m 0,5 km/h (0 Bft) N-NW 0,00 h 0,025 mm 0,0 UV-I 29 W/m 3,2 C 5,1 C 1,9 km/h (1 Bft) 97,96 %
15.12.2015 16:00 4,7 C 91 % 1026,6 hPa 0,0 l/m 0,3 km/h (0 Bft) N 0,00 h 0,000 mm 0,0 UV-I 7 W/m 3,3 C 4,7 C 1,1 km/h (0 Bft) 98,93 %
15.12.2015 17:00 4,5 C 92 % 1026,9 hPa 0,0 l/m 1,8 km/h (1 Bft) S-SO 0,00 h 0,000 mm 0,0 UV-I 0 W/m 3,4 C 4,5 C 4,0 km/h (1 Bft) 98,15 %
15.12.2015 18:00 4,6 C 92 % 1027,3 hPa 0,0 l/m 1,4 km/h (1 Bft) S 0,00 h 0,000 mm 0,0 UV-I 0 W/m 3,4 C 4,6 C 3,1 km/h (1 Bft) 99,23 %
15.12.2015 19:00 4,6 C 93 % 1027,5 hPa 0,0 l/m 0,7 km/h (0 Bft) S 0,00 h 0,000 mm 0,0 UV-I 0 W/m 3,6 C 4,6 C 2,3 km/h (1 Bft) 97,83 %
15.12.2015 20:00 4,3 C 95 % 1027,9 hPa 0,0 l/m 0,4 km/h (0 Bft) S 0,00 h 0,000 mm 0,0 UV-I 0 W/m 3,6 C 4,3 C 1,7 km/h (1 Bft) 99,28 %
15.12.2015 21:00 4,4 C 96 % 1028,0 hPa 0,0 l/m 0,5 km/h (0 Bft) S 0,00 h 0,000 mm 0,0 UV-I 0 W/m 3,8 C 4,4 C 1,9 km/h (1 Bft) 97,78 %
15.12.2015 22:00 4,5 C 96 % 1028,1 hPa 0,0 l/m 0,4 km/h (0 Bft) S 0,00 h 0,000 mm 0,0 UV-I 0 W/m 3,9 C 4,5 C 1,5 km/h (1 Bft) 99,43 %
15.12.2015 23:00 4,3 C 96 % 1028,3 hPa 0,0 l/m 0,8 km/h (0 Bft) S 0,00 h 0,000 mm 0,0 UV-I 0 W/m 3,7 C 4,3 C 2,3 km/h (1 Bft) 97,87 %
16.12.2015 00:00 4,1 C 96 % 1028,4 hPa 0,0 l/m 1,1 km/h (1 Bft) S 0,00 h 0,000 mm 0,0 UV-I 0 W/m 3,6 C 4,1 C 2,5 km/h (1 Bft) 99,43 %
16.12.2015 01:00 4,1 C 96 % 1028,5 hPa 0,0 l/m 0,6 km/h (0 Bft) S 0,00 h 0,000 mm 0,0 UV-I 0 W/m 3,5 C 4,1 C 2,1 km/h (1 Bft) 97,81 %
16.12.2015 02:00 4,0 C 97 % 1028,6 hPa 0,0 l/m 1,2 km/h (1 Bft) S-SW 0,00 h 0,000 mm 0,0 UV-I 0 W/m 3,5 C 4,0 C 3,1 km/h (1 Bft) 99,50 %
16.12.2015 03:00 4,0 C 97 % 1028,8 hPa 0,0 l/m 1,8 km/h (1 Bft) O-NO 0,00 h 0,000 mm 0,0 UV-I 0 W/m 3,6 C 4,0 C 3,7 km/h (1 Bft) 97,43 %
16.12.2015 04:00 3,9 C 97 % 1028,8 hPa 0,0 l/m 0,6 km/h (0 Bft) N-NO 0,00 h 0,000 mm 0,0 UV-I 0 W/m 3,5 C 3,9 C 2,0 km/h (1 Bft) 99,51 %
16.12.2015 05:00 3,8 C 97 % 1028,9 hPa 0,0 l/m 0,6 km/h (0 Bft) NO 0,00 h 0,000 mm 0,0 UV-I 0 W/m 3,4 C 3,8 C 2,1 km/h (1 Bft) 97,64 %
16.12.2015 06:00 3,7 C 97 % 1029,1 hPa 0,0 l/m 0,6 km/h (0 Bft) NO 0,00 h 0,000 mm 0,0 UV-I 0 W/m 3,3 C 3,7 C 2,0 km/h (1 Bft) 99,30 %
16.12.2015 07:00 4,0 C 96 % 1029,4 hPa 0,0 l/m 1,7 km/h (1 Bft) N-NO 0,00 h 0,000 mm 0,0 UV-I 2 W/m 3,4 C 4,0 C 3,7 km/h (1 Bft) 97,43 %
16.12.2015 08:00 3,9 C 97 % 1030,0 hPa 0,0 l/m 1,7 km/h (1 Bft) N-NO 0,00 h 0,000 mm 0,0 UV-I 18 W/m 3,5 C 3,9 C 4,4 km/h (1 Bft) 99,50 %
16.12.2015 09:00 4,4 C 97 % 1030,3 hPa 0,0 l/m 1,5 km/h (1 Bft) NO 0,00 h 0,000 mm 0,0 UV-I 44 W/m 3,9 C 4,4 C 3,5 km/h (1 Bft) 97,80 %
16.12.2015 10:00 5,3 C 93 % 1030,5 hPa 0,0 l/m 1,6 km/h (1 Bft) O-NO 0,00 h 0,025 mm 0,0 UV-I 111 W/m 4,3 C 5,3 C 4,1 km/h (1 Bft) 99,23 %
16.12.2015 11:00 6,3 C 90 % 1030,1 hPa 0,0 l/m 4,1 km/h (1 Bft) NO 0,33 h 0,051 mm 0,5 UV-I 184 W/m 4,8 C 6,3 C 6,3 km/h (2 Bft) 98,65 %
16.12.2015 12:00 7,4 C 87 % 1029,8 hPa 0,0 l/m 3,7 km/h (1 Bft) NO 1,00 h 0,076 mm 0,6 UV-I 250 W/m 5,3 C 7,4 C 6,5 km/h (2 Bft) 99,28 %
16.12.2015 13:00 7,6 C 88 % 1029,6 hPa 0,0 l/m 4,3 km/h (1 Bft) NO 0,75 h 0,102 mm 0,4 UV-I 157 W/m 5,7 C 7,5 C 6,9 km/h (2 Bft) 97,96 %
16.12.2015 14:00 7,5 C 89 % 1029,5 hPa 0,0 l/m 5,5 km/h (1 Bft) NO 0,75 h 0,076 mm 0,0 UV-I 114 W/m 5,8 C 7,5 C 8,0 km/h (2 Bft) 98,29 %
16.12.2015 15:00 6,6 C 92 % 1029,6 hPa 0,0 l/m 2,9 km/h (1 Bft) O-NO 0,08 h 0,051 mm 0,0 UV-I 34 W/m 5,3 C 6,6 C 4,9 km/h (1 Bft) 99,00 %
16.12.2015 16:00 5,8 C 93 % 1029,6 hPa 0,0 l/m 3,1 km/h (1 Bft) O-NO 0,00 h 0,025 mm 0,0 UV-I 5 W/m 4,8 C 5,8 C 5,1 km/h (1 Bft) 98,31 %
16.12.2015 17:00 4,7 C 95 % 1029,5 hPa 0,0 l/m 3,6 km/h (1 Bft) NO 0,00 h 0,000 mm 0,0 UV-I 0 W/m 4,1 C 4,7 C 5,5 km/h (1 Bft) 99,01 %
16.12.2015 18:00 4,0 C 96 % 1029,4 hPa 0,0 l/m 3,0 km/h (1 Bft) NO 0,00 h 0,000 mm 0,0 UV-I 0 W/m 3,5 C 4,0 C 4,8 km/h (1 Bft) 98,43 %
16.12.2015 19:00 3,6 C 97 % 1029,5 hPa 0,0 l/m 7,3 km/h (2 Bft) NO 0,00 h 0,000 mm 0,0 UV-I 0 W/m 3,2 C 2,4 C 11,3 km/h (2 Bft) 98,57 %
16.12.2015 20:00 2,6 C 98 % 1029,7 hPa 0,0 l/m 4,6 km/h (1 Bft) O-NO 0,00 h 0,000 mm 0,0 UV-I 0 W/m 2,3 C 2,6 C 7,9 km/h (2 Bft) 99,08 %
16.12.2015 21:00 2,6 C 98 % 1029,9 hPa 0,0 l/m 4,2 km/h (1 Bft) O-NO 0,00 h 0,000 mm 0,0 UV-I 0 W/m 2,3 C 2,6 C 7,9 km/h (2 Bft) 98,24 %
16.12.2015 22:00 2,8 C 98 % 1030,0 hPa 0,0 l/m 3,8 km/h (1 Bft) O-NO 0,00 h 0,000 mm 0,0 UV-I 0 W/m 2,6 C 2,8 C 6,3 km/h (2 Bft) 98,85 %
16.12.2015 23:00 3,0 C 98 % 1030,0 hPa 0,0 l/m 2,7 km/h (1 Bft) O-NO 0,00 h 0,000 mm 0,0 UV-I 0 W/m 2,7 C 3,0 C 5,2 km/h (1 Bft) 98,09 %
17.12.2015 00:00 2,9 C 98 % 1029,8 hPa 0,2 l/m 3,2 km/h (1 Bft) NO 0,00 h 0,000 mm 0,0 UV-I 0 W/m 2,7 C 2,9 C 6,1 km/h (2 Bft) 98,93 %
17.12.2015 01:00 2,8 C 98 % 1029,5 hPa 0,4 l/m 4,6 km/h (1 Bft) NO 0,00 h 0,000 mm 0,0 UV-I 0 W/m 2,6 C 2,8 C 7,3 km/h (2 Bft) 82,75 %
17.12.2015 02:00 2,8 C 98 % 1029,5 hPa 0,0 l/m 4,9 km/h (1 Bft) O-NO 0,00 h 0,000 mm 0,0 UV-I 0 W/m 2,6 C 2,8 C 7,5 km/h (2 Bft) 99,02 %
17.12.2015 03:00 3,0 C 98 % 1029,3 hPa 0,2 l/m 4,3 km/h (1 Bft) NO 0,00 h 0,000 mm 0,0 UV-I 0 W/m 2,7 C 3,0 C 6,7 km/h (2 Bft) 97,93 %
17.12.2015 04:00 3,2 C 98 % 1029,0 hPa 0,0 l/m 4,5 km/h (1 Bft) NO 0,00 h 0,000 mm 0,0 UV-I 0 W/m 2,9 C 3,2 C 7,3 km/h (2 Bft) 99,00 %
17.12.2015 05:00 3,2 C 98 % 1028,8 hPa 0,0 l/m 4,2 km/h (1 Bft) NO 0,00 h 0,000 mm 0,0 UV-I 0 W/m 2,9 C 3,2 C 7,1 km/h (2 Bft) 97,66 %
17.12.2015 06:00 3,3 C 98 % 1028,9 hPa 0,0 l/m 2,2 km/h (1 Bft) N-NO 0,00 h 0,000 mm 0,0 UV-I 0 W/m 3,0 C 3,3 C 4,3 km/h (1 Bft) 99,07 %
17.12.2015 07:00 3,4 C 98 % 1029,1 hPa 1,4 l/m 1,4 km/h (1 Bft) O-NO 0,00 h 0,000 mm 0,0 UV-I 0 W/m 3,1 C 3,4 C 3,3 km/h (1 Bft) 95,27 %
17.12.2015 08:00 3,7 C 98 % 1029,4 hPa 0,2 l/m 0,0 km/h (0 Bft) N 0,00 h 0,000 mm 0,0 UV-I 10 W/m 3,4 C 3,7 C 0,8 km/h (0 Bft) 88,55 %
17.12.2015 09:00 4,0 C 98 % 1029,5 hPa 0,2 l/m 0,3 km/h (0 Bft) N 0,00 h 0,000 mm 0,0 UV-I 25 W/m 3,8 C 4,0 C 1,1 km/h (0 Bft) 96,43 %
17.12.2015 10:00 4,7 C 98 % 1029,5 hPa 0,4 l/m 0,0 km/h (0 Bft) N 0,00 h 0,000 mm 0,0 UV-I 44 W/m 4,4 C 4,7 C 0,5 km/h (0 Bft) 98,11 %
17.12.2015 11:00 5,4 C 98 % 1029,0 hPa 0,2 l/m 0,8 km/h (0 Bft) N-NO 0,00 h 0,025 mm 0,0 UV-I 59 W/m 5,1 C 5,4 C 2,5 km/h (1 Bft) 97,89 %
17.12.2015 12:00 5,6 C 98 % 1028,5 hPa 0,0 l/m 0,6 km/h (0 Bft) N-NO 0,00 h 0,026 mm 0,0 UV-I 51 W/m 5,3 C 5,6 C 2,1 km/h (1 Bft) 93,74 %
17.12.2015 13:00 6,1 C 98 % 1028,1 hPa 0,0 l/m 0,9 km/h (0 Bft) N-NO 0,00 h 0,025 mm 0,0 UV-I 43 W/m 5,8 C 6,1 C 2,4 km/h (1 Bft) 97,10 %
17.12.2015 14:00 7,1 C 98 % 1028,0 hPa 0,0 l/m 2,4 km/h (1 Bft) SW 0,00 h 0,026 mm 0,0 UV-I 30 W/m 6,8 C 6,8 C 5,1 km/h (1 Bft) 98,56 %
17.12.2015 15:00 9,6 C 96 % 1027,7 hPa 0,0 l/m 7,6 km/h (2 Bft) SW 0,00 h 0,025 mm 0,0 UV-I 11 W/m 8,9 C 8,4 C 12,3 km/h (3 Bft) 97,72 %
17.12.2015 16:00 9,4 C 95 % 1027,3 hPa 0,0 l/m 3,6 km/h (1 Bft) S 0,00 h 0,000 mm 0,0 UV-I 2 W/m 8,7 C 9,4 C 6,6 km/h (2 Bft) 83,42 %
17.12.2015 17:00 6,9 C 97 % 1027,1 hPa 0,0 l/m 2,9 km/h (1 Bft) NO 0,00 h 0,000 mm 0,0 UV-I 0 W/m 6,4 C 6,8 C 5,1 km/h (1 Bft) 77,95 %
17.12.2015 18:00 6,5 C 98 % 1026,9 hPa 0,0 l/m 1,6 km/h (1 Bft) SO 0,00 h 0,000 mm 0,0 UV-I 0 W/m 6,2 C 6,5 C 4,1 km/h (1 Bft) 59,90 %
17.12.2015 19:00 6,2 C 98 % 1026,8 hPa 0,0 l/m 1,8 km/h (1 Bft) NO 0,00 h 0,000 mm 0,0 UV-I 0 W/m 5,9 C 6,2 C 3,7 km/h (1 Bft) 87,04 %
17.12.2015 20:00 6,3 C 98 % 1026,8 hPa 0,0 l/m 3,1 km/h (1 Bft) NO 0,00 h 0,000 mm 0,0 UV-I 0 W/m 6,0 C 6,3 C 5,1 km/h (1 Bft) 98,09 %
17.12.2015 21:00 5,9 C 98 % 1026,7 hPa 0,0 l/m 1,8 km/h (1 Bft) O-NO 0,00 h 0,000 mm 0,0 UV-I 0 W/m 5,7 C 5,9 C 3,9 km/h (1 Bft) 96,39 %
17.12.2015 22:00 6,1 C 99 % 1026,5 hPa 0,0 l/m 1,1 km/h (1 Bft) O 0,00 h 0,000 mm 0,0 UV-I 0 W/m 5,9 C 6,1 C 4,1 km/h (1 Bft) 98,18 %
17.12.2015 23:00 6,2 C 99 % 1026,4 hPa 0,0 l/m 1,8 km/h (1 Bft) SO 0,00 h 0,000 mm 0,0 UV-I 0 W/m 6,0 C 6,2 C 4,5 km/h (1 Bft) 97,53 %
18.12.2015 00:00 6,2 C 99 % 1025,9 hPa 0,0 l/m 2,5 km/h (1 Bft) N 0,00 h 0,000 mm 0,0 UV-I 0 W/m 6,0 C 6,2 C 6,4 km/h (2 Bft) 98,62 %
18.12.2015 01:00 5,4 C 99 % 1025,6 hPa 0,0 l/m 0,6 km/h (0 Bft) SO 0,00 h 0,000 mm 0,0 UV-I 0 W/m 5,2 C 5,4 C 2,3 km/h (1 Bft) 97,80 %
18.12.2015 02:00 5,5 C 99 % 1025,5 hPa 0,0 l/m 0,7 km/h (0 Bft) SW 0,00 h 0,000 mm 0,0 UV-I 0 W/m 5,4 C 5,5 C 2,3 km/h (1 Bft) 98,59 %
18.12.2015 03:00 6,5 C 99 % 1025,3 hPa 0,0 l/m 4,8 km/h (1 Bft) SW 0,00 h 0,000 mm 0,0 UV-I 0 W/m 6,3 C 6,4 C 7,5 km/h (2 Bft) 98,23 %
18.12.2015 04:00 6,0 C 97 % 1025,0 hPa 0,0 l/m 3,3 km/h (1 Bft) S 0,00 h 0,000 mm 0,0 UV-I 0 W/m 5,6 C 6,0 C 6,7 km/h (2 Bft) 97,70 %
18.12.2015 05:00 6,0 C 96 % 1024,8 hPa 0,0 l/m 6,1 km/h (2 Bft) S 0,00 h 0,000 mm 0,0 UV-I 0 W/m 5,4 C 5,6 C 11,2 km/h (2 Bft) 98,23 %
18.12.2015 06:00 4,7 C 97 % 1024,8 hPa 0,0 l/m 3,0 km/h (1 Bft) S-SW 0,00 h 0,000 mm 0,0 UV-I 0 W/m 4,2 C 4,7 C 5,6 km/h (1 Bft) 98,47 %
18.12.2015 07:00 3,5 C 98 % 1024,9 hPa 0,0 l/m 1,6 km/h (1 Bft) S 0,00 h 0,000 mm 0,0 UV-I 4 W/m 3,2 C 3,5 C 3,7 km/h (1 Bft) 98,65 %
18.12.2015 08:00 3,2 C 98 % 1025,1 hPa 0,0 l/m 1,2 km/h (1 Bft) S 0,08 h 0,000 mm 0,0 UV-I 21 W/m 2,9 C 3,2 C 2,7 km/h (1 Bft) 58,59 %
18.12.2015 09:00 3,6 C 98 % 1025,4 hPa 0,0 l/m 0,9 km/h (0 Bft) SW 0,50 h 0,025 mm 0,0 UV-I 102 W/m 3,4 C 3,6 C 2,8 km/h (1 Bft) 89,47 %
18.12.2015 10:00 5,1 C 98 % 1025,8 hPa 0,2 l/m 5,0 km/h (1 Bft) W-SW 0,75 h 0,051 mm 0,0 UV-I 191 W/m 4,9 C 5,1 C 8,6 km/h (2 Bft) 98,00 %
18.12.2015 11:00 5,5 C 98 % 1025,9 hPa 0,0 l/m 4,9 km/h (1 Bft) W 0,00 h 0,076 mm 0,0 UV-I 95 W/m 5,2 C 5,5 C 9,9 km/h (2 Bft) 99,13 %
18.12.2015 12:00 6,6 C 99 % 1026,0 hPa 0,0 l/m 5,0 km/h (1 Bft) W 0,00 h 0,051 mm 0,3 UV-I 94 W/m 6,4 C 6,5 C 9,4 km/h (2 Bft) 97,94 %
18.12.2015 13:00 7,4 C 97 % 1026,0 hPa 0,0 l/m 2,1 km/h (1 Bft) W-SW 0,00 h 0,051 mm 0,0 UV-I 30 W/m 6,9 C 7,4 C 4,7 km/h (1 Bft) 99,20 %
18.12.2015 14:00 7,5 C 97 % 1025,8 hPa 0,2 l/m 1,4 km/h (1 Bft) NO 0,00 h 0,025 mm 0,0 UV-I 35 W/m 7,0 C 7,5 C 3,9 km/h (1 Bft) 98,14 %
18.12.2015 15:00 7,4 C 97 % 1026,0 hPa 0,0 l/m 1,5 km/h (1 Bft) O-NO 0,00 h 0,026 mm 0,0 UV-I 12 W/m 6,9 C 7,4 C 3,3 km/h (1 Bft) 99,47 %
18.12.2015 16:00 7,1 C 97 % 1026,3 hPa 0,0 l/m 1,2 km/h (1 Bft) S-SO 0,00 h 0,000 mm 0,0 UV-I 0 W/m 6,5 C 7,1 C 3,3 km/h (1 Bft) 97,73 %
18.12.2015 17:00 7,0 C 97 % 1026,4 hPa 0,0 l/m 1,6 km/h (1 Bft) O-NO 0,00 h 0,000 mm 0,0 UV-I 0 W/m 6,6 C 7,0 C 3,5 km/h (1 Bft) 98,77 %
18.12.2015 18:00 6,8 C 98 % 1026,4 hPa 0,0 l/m 1,0 km/h (0 Bft) N 0,00 h 0,000 mm 0,0 UV-I 0 W/m 6,5 C 6,8 C 3,2 km/h (1 Bft) 97,78 %
18.12.2015 19:00 7,0 C 97 % 1026,9 hPa 0,0 l/m 0,2 km/h (0 Bft) N 0,00 h 0,000 mm 0,0 UV-I 0 W/m 6,6 C 7,0 C 1,5 km/h (1 Bft) 99,50 %
18.12.2015 20:00 7,1 C 97 % 1027,0 hPa 0,0 l/m 3,6 km/h (1 Bft) S 0,00 h 0,000 mm 0,0 UV-I 0 W/m 6,7 C 7,1 C 6,2 km/h (2 Bft) 97,64 %
18.12.2015 21:00 7,1 C 97 % 1027,1 hPa 0,0 l/m 3,3 km/h (1 Bft) SW 0,00 h 0,000 mm 0,0 UV-I 0 W/m 6,6 C 7,1 C 6,0 km/h (2 Bft) 99,07 %
18.12.2015 22:00 7,1 C 97 % 1027,2 hPa 0,0 l/m 1,7 km/h (1 Bft) SO 0,00 h 0,000 mm 0,0 UV-I 0 W/m 6,6 C 7,1 C 4,4 km/h (1 Bft) 97,84 %
18.12.2015 23:00 7,1 C 97 % 1026,9 hPa 0,0 l/m 2,2 km/h (1 Bft) S 0,00 h 0,000 mm 0,0 UV-I 0 W/m 6,6 C 7,1 C 4,8 km/h (1 Bft) 99,21 %
19.12.2015 00:00 6,2 C 98 % 1026,8 hPa 0,0 l/m 0,7 km/h (0 Bft) O-NO 0,00 h 0,000 mm 0,0 UV-I 0 W/m 5,9 C 6,2 C 1,9 km/h (1 Bft) 97,94 %
19.12.2015 01:00 5,5 C 98 % 1026,4 hPa 0,0 l/m 1,1 km/h (1 Bft) O-NO 0,00 h 0,000 mm 0,0 UV-I 0 W/m 5,3 C 5,5 C 2,7 km/h (1 Bft) 99,36 %
19.12.2015 02:00 4,7 C 99 % 1026,5 hPa 0,0 l/m 2,2 km/h (1 Bft) O-NO 0,00 h 0,000 mm 0,0 UV-I 0 W/m 4,5 C 4,7 C 3,9 km/h (1 Bft) 97,75 %
19.12.2015 03:00 5,4 C 99 % 1026,4 hPa 0,0 l/m 5,0 km/h (1 Bft) NO 0,00 h 0,000 mm 0,0 UV-I 0 W/m 5,3 C 5,4 C 8,2 km/h (2 Bft) 98,52 %
19.12.2015 04:00 5,0 C 99 % 1026,2 hPa 0,0 l/m 2,5 km/h (1 Bft) SO 0,00 h 0,000 mm 0,0 UV-I 0 W/m 4,9 C 5,0 C 6,3 km/h (2 Bft) 98,26 %
19.12.2015 05:00 3,6 C 99 % 1026,0 hPa 0,2 l/m 0,3 km/h (0 Bft) N 0,00 h 0,000 mm 0,0 UV-I 0 W/m 3,5 C 3,6 C 1,7 km/h (1 Bft) 98,39 %
19.12.2015 06:00 3,4 C 99 % 1026,2 hPa 0,0 l/m 0,9 km/h (0 Bft) N-NO 0,00 h 0,000 mm 0,0 UV-I 0 W/m 3,3 C 3,4 C 2,4 km/h (1 Bft) 98,18 %
19.12.2015 07:00 3,6 C 99 % 1026,4 hPa 0,0 l/m 1,4 km/h (1 Bft) O-SO 0,00 h 0,000 mm 0,0 UV-I 0 W/m 3,4 C 3,6 C 3,5 km/h (1 Bft) 98,30 %
19.12.2015 08:00 3,6 C 99 % 1026,9 hPa 0,0 l/m 0,8 km/h (0 Bft) S 0,00 h 0,000 mm 0,0 UV-I 18 W/m 3,5 C 3,6 C 2,6 km/h (1 Bft) 99,00 %
19.12.2015 09:00 4,1 C 99 % 1027,0 hPa 0,0 l/m 1,5 km/h (1 Bft) S 0,00 h 0,000 mm 0,0 UV-I 47 W/m 3,9 C 4,1 C 3,3 km/h (1 Bft) 98,32 %
19.12.2015 10:00 4,9 C 99 % 1027,1 hPa 0,0 l/m 0,3 km/h (0 Bft) N 0,00 h 0,025 mm 0,0 UV-I 75 W/m 4,8 C 4,9 C 2,0 km/h (1 Bft) 98,72 %
19.12.2015 11:00 5,7 C 99 % 1026,7 hPa 0,0 l/m 1,3 km/h (1 Bft) N-NO 0,00 h 0,026 mm 0,0 UV-I 87 W/m 5,6 C 5,7 C 4,1 km/h (1 Bft) 98,49 %
19.12.2015 12:00 6,0 C 99 % 1026,1 hPa 0,0 l/m 1,0 km/h (0 Bft) O-NO 0,00 h 0,025 mm 0,0 UV-I 76 W/m 5,8 C 6,0 C 3,3 km/h (1 Bft) 98,78 %
19.12.2015 13:00 6,1 C 99 % 1025,6 hPa 0,0 l/m 0,8 km/h (0 Bft) O-NO 0,00 h 0,026 mm 0,0 UV-I 76 W/m 6,0 C 6,1 C 2,5 km/h (1 Bft) 98,25 %
19.12.2015 14:00 6,3 C 99 % 1025,3 hPa 0,0 l/m 1,2 km/h (1 Bft) NO 0,00 h 0,025 mm 0,0 UV-I 42 W/m 6,2 C 6,3 C 3,5 km/h (1 Bft) 99,30 %
19.12.2015 15:00 6,3 C 99 % 1025,4 hPa 0,0 l/m 1,0 km/h (0 Bft) NO 0,00 h 0,025 mm 0,0 UV-I 13 W/m 6,2 C 6,3 C 2,9 km/h (1 Bft) 98,00 %
19.12.2015 16:00 6,0 C 99 % 1025,6 hPa 0,0 l/m 2,3 km/h (1 Bft) O-NO 0,00 h 0,000 mm 0,0 UV-I 2 W/m 5,8 C 6,0 C 4,7 km/h (1 Bft) 99,37 %
19.12.2015 17:00 5,7 C 99 % 1026,0 hPa 0,0 l/m 2,3 km/h (1 Bft) O-NO 0,00 h 0,000 mm 0,0 UV-I 0 W/m 5,6 C 5,7 C 4,4 km/h (1 Bft) 97,93 %
19.12.2015 18:00 5,6 C 99 % 1026,1 hPa 0,0 l/m 3,0 km/h (1 Bft) O-NO 0,00 h 0,000 mm 0,0 UV-I 0 W/m 5,4 C 5,6 C 6,3 km/h (2 Bft) 99,16 %
19.12.2015 19:00 5,5 C 99 % 1026,2 hPa 0,0 l/m 4,8 km/h (1 Bft) O-NO 0,00 h 0,000 mm 0,0 UV-I 0 W/m 5,3 C 5,4 C 8,4 km/h (2 Bft) 97,65 %
19.12.2015 20:00 5,1 C 99 % 1026,2 hPa 0,0 l/m 6,8 km/h (2 Bft) O-NO 0,00 h 0,000 mm 0,0 UV-I 0 W/m 4,9 C 4,4 C 11,5 km/h (2 Bft) 99,18 %
19.12.2015 21:00 5,0 C 99 % 1026,1 hPa 0,0 l/m 6,1 km/h (2 Bft) O-NO 0,00 h 0,000 mm 0,0 UV-I 0 W/m 4,8 C 4,7 C 11,0 km/h (2 Bft) 97,84 %
19.12.2015 22:00 4,8 C 99 % 1025,8 hPa 0,0 l/m 6,2 km/h (2 Bft) O-NO 0,00 h 0,000 mm 0,0 UV-I 0 W/m 4,6 C 4,5 C 10,7 km/h (2 Bft) 99,37 %
19.12.2015 23:00 4,1 C 99 % 1025,9 hPa 0,0 l/m 7,9 km/h (2 Bft) N-NO 0,00 h 0,000 mm 0,0 UV-I 0 W/m 4,0 C 2,7 C 12,9 km/h (3 Bft) 97,44 %
20.12.2015 00:00 3,6 C 99 % 1025,9 hPa 0,0 l/m 8,3 km/h (2 Bft) O-NO 0,00 h 0,000 mm 0,0 UV-I 0 W/m 3,5 C 2,0 C 14,0 km/h (3 Bft) 97,27 %
20.12.2015 01:00 3,4 C 99 % 1025,4 hPa 0,0 l/m 8,2 km/h (2 Bft) NO 0,00 h 0,000 mm 0,0 UV-I 0 W/m 3,3 C 1,8 C 14,5 km/h (3 Bft) 97,91 %
20.12.2015 02:00 3,4 C 99 % 1025,4 hPa 0,0 l/m 10,0 km/h (2 Bft) NO 0,00 h 0,000 mm 0,0 UV-I 0 W/m 3,2 C 0,4 C 16,8 km/h (3 Bft) 99,29 %
20.12.2015 03:00 3,3 C 99 % 1024,9 hPa 0,2 l/m 12,1 km/h (2 Bft) O-NO 0,00 h 0,000 mm 0,0 UV-I 0 W/m 3,2 C -1,1 C 18,8 km/h (3 Bft) 97,58 %
20.12.2015 04:00 3,1 C 99 % 1024,8 hPa 0,0 l/m 10,1 km/h (2 Bft) NO 0,00 h 0,000 mm 0,0 UV-I 0 W/m 2,9 C -0,1 C 16,9 km/h (3 Bft) 99,15 %
20.12.2015 05:00 2,8 C 99 % 1024,9 hPa 0,0 l/m 8,6 km/h (2 Bft) O-NO 0,00 h 0,000 mm 0,0 UV-I 0 W/m 2,7 C 0,9 C 14,2 km/h (3 Bft) 98,23 %
20.12.2015 06:00 2,7 C 99 % 1025,0 hPa 0,0 l/m 9,6 km/h (2 Bft) NO 0,00 h 0,000 mm 0,0 UV-I 0 W/m 2,6 C -0,0 C 16,1 km/h (3 Bft) 99,15 %
20.12.2015 07:00 2,8 C 99 % 1025,2 hPa 0,0 l/m 9,4 km/h (2 Bft) O-NO 0,00 h 0,000 mm 0,0 UV-I 0 W/m 2,7 C 0,2 C 15,6 km/h (3 Bft) 97,43 %
20.12.2015 08:00 2,8 C 99 % 1025,4 hPa 0,0 l/m 10,1 km/h (2 Bft) O-NO 0,00 h 0,000 mm 0,0 UV-I 8 W/m 2,7 C -0,2 C 16,0 km/h (3 Bft) 99,13 %
20.12.2015 09:00 2,8 C 99 % 1025,7 hPa 0,0 l/m 11,6 km/h (2 Bft) NO 0,00 h 0,000 mm 0,0 UV-I 21 W/m 2,7 C -1,5 C 17,8 km/h (3 Bft) 97,96 %
20.12.2015 10:00 2,9 C 99 % 1025,9 hPa 0,0 l/m 11,5 km/h (2 Bft) O-NO 0,00 h 0,000 mm 0,0 UV-I 35 W/m 2,8 C -1,2 C 18,6 km/h (3 Bft) 98,45 %
20.12.2015 11:00 3,0 C 99 % 1025,9 hPa 0,0 l/m 9,0 km/h (2 Bft) NO 0,00 h 0,025 mm 0,0 UV-I 42 W/m 2,9 C 0,8 C 15,3 km/h (3 Bft) 97,86 %
20.12.2015 12:00 3,1 C 99 % 1025,9 hPa 0,0 l/m 7,4 km/h (2 Bft) NO 0,00 h 0,026 mm 0,0 UV-I 41 W/m 2,9 C 1,9 C 13,2 km/h (3 Bft) 99,28 %
20.12.2015 13:00 3,1 C 99 % 1025,8 hPa 0,0 l/m 5,7 km/h (1 Bft) O-NO 0,00 h 0,025 mm 0,0 UV-I 40 W/m 3,0 C 2,9 C 10,3 km/h (2 Bft) 97,56 %
20.12.2015 14:00 3,2 C 99 % 1025,8 hPa 0,0 l/m 6,8 km/h (2 Bft) O-NO 0,00 h 0,026 mm 0,0 UV-I 21 W/m 3,1 C 2,5 C 12,9 km/h (3 Bft) 99,21 %
20.12.2015 15:00 3,0 C 99 % 1025,8 hPa 0,0 l/m 9,7 km/h (2 Bft) O-NO 0,00 h 0,000 mm 0,0 UV-I 10 W/m 2,8 C 0,2 C 16,1 km/h (3 Bft) 97,99 %
20.12.2015 16:00 2,8 C 99 % 1025,8 hPa 0,0 l/m 10,1 km/h (2 Bft) O-NO 0,00 h 0,000 mm 0,0 UV-I 0 W/m 2,6 C -0,4 C 16,4 km/h (3 Bft) 98,45 %
20.12.2015 17:00 2,7 C 99 % 1026,0 hPa 0,0 l/m 8,1 km/h (2 Bft) O-NO 0,00 h 0,000 mm 0,0 UV-I 0 W/m 2,5 C 0,9 C 13,8 km/h (3 Bft) 98,25 %
20.12.2015 18:00 2,5 C 99 % 1026,2 hPa 0,0 l/m 8,5 km/h (2 Bft) NO 0,00 h 0,000 mm 0,0 UV-I 0 W/m 2,3 C 0,5 C 14,6 km/h (3 Bft) 98,92 %
20.12.2015 19:00 2,4 C 99 % 1026,4 hPa 0,0 l/m 8,4 km/h (2 Bft) O-NO 0,00 h 0,000 mm 0,0 UV-I 0 W/m 2,2 C 0,5 C 13,4 km/h (3 Bft) 98,55 %
20.12.2015 20:00 2,4 C 99 % 1026,5 hPa 0,0 l/m 7,0 km/h (2 Bft) O-NO 0,00 h 0,000 mm 0,0 UV-I 0 W/m 2,2 C 1,5 C 12,5 km/h (3 Bft) 99,15 %
20.12.2015 21:00 2,3 C 99 % 1026,5 hPa 0,0 l/m 8,7 km/h (2 Bft) NO 0,00 h 0,000 mm 0,0 UV-I 0 W/m 2,2 C 0,3 C 14,2 km/h (3 Bft) 98,23 %
20.12.2015 22:00 2,3 C 99 % 1026,5 hPa 0,0 l/m 8,9 km/h (2 Bft) O-NO 0,00 h 0,000 mm 0,0 UV-I 0 W/m 2,2 C 0,1 C 15,3 km/h (3 Bft) 99,01 %
20.12.2015 23:00 2,3 C 99 % 1026,7 hPa 0,0 l/m 7,0 km/h (2 Bft) NO 0,00 h 0,000 mm 0,0 UV-I 0 W/m 2,2 C 1,3 C 11,9 km/h (2 Bft) 98,15 %
Min-Datum _ 15.12.15 15.12.15 14.12.15 - 14.12.15 - - - - - 15.12.15 20.12.15 14.12.15 17.12.15
_ Min-Zeit 06:50 13:25 13:55 - 02:10 - - - - - 06:55 03:25 02:20 18:45
Minimum _ 2,0 C 85 % 1023,4 hPa - 0,0 km/h (0 Bft) - - - - - 1,1 C -3,6 C 0,0 km/h (0 Bft) 0,38 %
Max-Datum _ 17.12.15 17.12.15 16.12.15 17.12.15 14.12.15 - 14.12.15 16.12.15 16.12.15 16.12.15 17.12.15 17.12.15 14.12.15 14.12.15
_ Max-Zeit 15:45 21:40 10:10 07:05 14:25 - 08:00 13:00 11:45 12:30 15:20 15:45 12:35 00:10
Maximum _ 9,8 C 99 % 1030,6 hPa 1,4 l/m 16,7 km/h
O (3 Bft)
- 0,08 h 0,102 mm 0,6 UV-I 283 W/m 9,1 C 9,8 C 24,1 km/h
NO (4 Bft)
100,00 %
Durchschnitt _ 4,4 C 96 % 1026,6 hPa #4,0 l/m 3,8 km/h (1 Bft) O-NO #5:20 h #1,600 mm 0,4 UV-I 59 W/m 3,9 C 3,8 C 7,0 km/h (2 Bft) 97,38 %